createdAt,value
2023-04-15T00:01:13.013Z,7.10
2023-04-15T00:03:40.867Z,6.30
2023-04-15T00:06:08.643Z,7.40
2023-04-15T00:08:36.168Z,7.70
2023-04-15T00:11:03.865Z,9.00
2023-04-15T00:13:34.317Z,9.60
2023-04-15T00:16:02.408Z,8.30
2023-04-15T00:18:30.158Z,9.70
2023-04-15T00:20:57.809Z,10.10
2023-04-15T00:23:25.757Z,8.40
2023-04-15T00:25:53.276Z,10.60
2023-04-15T00:28:20.855Z,9.40
2023-04-15T00:30:48.498Z,6.90
2023-04-15T00:33:16.072Z,11.70
2023-04-15T00:35:43.692Z,7.60
2023-04-15T00:38:11.486Z,7.90
2023-04-15T00:40:39.190Z,8.90
2023-04-15T00:43:06.901Z,9.20
2023-04-15T00:45:34.543Z,7.90
2023-04-15T00:48:02.418Z,8.70
2023-04-15T00:50:30.037Z,9.10
2023-04-15T00:52:57.601Z,8.20
2023-04-15T00:55:25.216Z,8.50
2023-04-15T00:57:52.909Z,8.70
2023-04-15T01:00:21.062Z,9.00
2023-04-15T01:02:49.195Z,10.00
2023-04-15T01:05:17.424Z,7.00
2023-04-15T01:07:44.981Z,10.10
2023-04-15T01:10:12.559Z,13.20
2023-04-15T01:12:40.539Z,11.80
2023-04-15T01:15:08.642Z,9.30
2023-04-15T01:17:36.460Z,9.00
2023-04-15T01:20:04.439Z,8.70
2023-04-15T01:22:34.289Z,10.90
2023-04-15T01:25:06.865Z,9.40
2023-04-15T01:27:35.611Z,9.30
2023-04-15T01:30:03.291Z,8.50
2023-04-15T01:32:30.962Z,10.60
2023-04-15T01:34:58.506Z,8.60
2023-04-15T01:37:26.216Z,8.90
2023-04-15T01:39:53.765Z,6.90
2023-04-15T01:42:21.702Z,8.20
2023-04-15T01:44:49.273Z,5.90
2023-04-15T01:47:16.841Z,8.10
2023-04-15T01:49:44.389Z,7.10
2023-04-15T01:52:11.954Z,9.40
2023-04-15T01:54:39.478Z,6.70
2023-04-15T01:57:07.031Z,9.40
2023-04-15T01:59:34.613Z,8.00
2023-04-15T02:02:02.176Z,9.60
2023-04-15T02:04:29.932Z,7.80
2023-04-15T02:06:57.455Z,7.90
2023-04-15T02:09:25.097Z,7.50
2023-04-15T02:11:52.765Z,7.30
2023-04-15T02:14:20.300Z,6.90
2023-04-15T02:16:47.946Z,7.20
2023-04-15T02:19:15.572Z,6.40
2023-04-15T02:21:43.154Z,7.80
2023-04-15T02:24:10.649Z,6.50
2023-04-15T02:26:38.185Z,8.10
2023-04-15T02:29:06.238Z,9.20
2023-04-15T02:31:33.829Z,9.80
2023-04-15T02:34:01.468Z,11.20
2023-04-15T02:36:28.998Z,10.50
2023-04-15T02:38:56.525Z,12.30
2023-04-15T02:41:24.058Z,13.30
2023-04-15T02:43:51.556Z,9.20
2023-04-15T02:46:19.128Z,10.90
2023-04-15T02:48:46.707Z,12.60
2023-04-15T02:51:14.693Z,18.80
2023-04-15T02:53:42.901Z,22.80
2023-04-15T02:56:10.452Z,16.70
2023-04-15T02:58:38.262Z,21.30
2023-04-15T03:04:46.460Z,19.60
2023-04-15T03:07:14.231Z,18.80
2023-04-15T03:09:41.779Z,20.10
2023-04-15T03:12:09.379Z,17.10
2023-04-15T03:14:36.993Z,15.80
2023-04-15T03:17:04.709Z,14.80
2023-04-15T03:19:32.310Z,13.50
2023-04-15T03:21:59.857Z,14.10
2023-04-15T03:24:27.496Z,14.60
2023-04-15T03:26:55.176Z,13.60
2023-04-15T03:29:22.818Z,14.40
2023-04-15T03:31:50.451Z,14.80
2023-04-15T03:34:18.078Z,15.90
2023-04-15T03:36:46.402Z,18.10
2023-04-15T03:39:14.055Z,15.90
2023-04-15T03:41:41.700Z,12.00
2023-04-15T03:44:09.383Z,12.30
2023-04-15T03:46:36.926Z,14.20
2023-04-15T03:49:06.951Z,20.30
2023-04-15T03:51:34.527Z,20.90
2023-04-15T03:54:02.062Z,18.60
2023-04-15T03:56:29.560Z,20.30
2023-04-15T03:58:57.107Z,13.80
2023-04-15T04:01:24.743Z,12.80
2023-04-15T04:03:52.477Z,11.50
2023-04-15T04:06:20.268Z,12.40
2023-04-15T04:08:47.785Z,11.80
2023-04-15T04:11:15.322Z,11.20
2023-04-15T04:13:42.837Z,12.80
2023-04-15T04:16:10.523Z,11.60
2023-04-15T04:18:38.124Z,17.00
2023-04-15T04:21:05.960Z,19.70
2023-04-15T04:23:33.557Z,19.30
2023-04-15T04:26:01.116Z,25.30
2023-04-15T04:28:28.675Z,20.40
2023-04-15T04:30:56.371Z,16.80
2023-04-15T04:33:24.004Z,16.60
2023-04-15T04:35:51.566Z,19.60
2023-04-15T04:38:19.086Z,20.50
2023-04-15T04:40:46.673Z,21.90
2023-04-15T04:43:14.272Z,24.00
2023-04-15T04:45:41.927Z,20.30
2023-04-15T04:48:09.452Z,18.60
2023-04-15T04:50:37.340Z,18.10
2023-04-15T04:53:04.952Z,16.90
2023-04-15T04:55:32.487Z,13.10
2023-04-15T04:58:00.184Z,11.50
2023-04-15T05:00:27.690Z,9.90
2023-04-15T05:02:55.469Z,8.10
2023-04-15T05:05:23.199Z,9.70
2023-04-15T05:07:50.849Z,9.50
2023-04-15T05:10:18.462Z,11.40
2023-04-15T05:12:46.014Z,11.50
2023-04-15T05:15:13.621Z,9.40
2023-04-15T05:17:41.222Z,13.20
2023-04-15T05:20:09.097Z,11.60
2023-04-15T05:22:36.998Z,13.70
2023-04-15T05:25:04.988Z,16.30
2023-04-15T05:27:32.569Z,23.70
2023-04-15T05:30:00.173Z,17.00
2023-04-15T05:32:27.734Z,15.60
2023-04-15T05:34:55.297Z,16.00
2023-04-15T05:37:22.807Z,15.70
2023-04-15T05:39:50.357Z,15.60
2023-04-15T05:42:17.911Z,11.60
2023-04-15T05:44:45.470Z,13.30
2023-04-15T05:47:13.022Z,11.50
2023-04-15T05:49:40.605Z,9.60
2023-04-15T05:52:08.111Z,10.00
2023-04-15T05:54:35.622Z,7.90
2023-04-15T05:57:03.254Z,8.90
2023-04-15T05:59:30.754Z,9.30
2023-04-15T06:01:58.331Z,8.20
2023-04-15T06:04:26.050Z,9.10
2023-04-15T06:06:53.776Z,9.40
2023-04-15T06:09:21.368Z,9.50
2023-04-15T06:11:48.874Z,9.80
2023-04-15T06:14:16.413Z,10.80
2023-04-15T06:16:44.098Z,11.10
2023-04-15T06:19:11.667Z,12.30
2023-04-15T06:21:39.234Z,8.90
2023-04-15T06:24:07.016Z,9.60
2023-04-15T06:26:34.595Z,9.00
2023-04-15T06:29:02.310Z,13.00
2023-04-15T06:31:30.405Z,10.40
2023-04-15T06:33:57.971Z,10.90
2023-04-15T06:36:25.508Z,11.50
2023-04-15T06:38:53.030Z,11.00
2023-04-15T06:41:20.599Z,8.90
2023-04-15T06:43:48.213Z,10.60
2023-04-15T06:46:15.819Z,9.30
2023-04-15T06:48:43.433Z,8.00
2023-04-15T06:51:10.958Z,10.20
2023-04-15T06:53:38.534Z,7.90
2023-04-15T06:56:07.774Z,8.50
2023-04-15T06:58:35.388Z,6.60
2023-04-15T07:01:03.048Z,6.40
2023-04-15T07:03:32.636Z,7.30
2023-04-15T07:06:00.517Z,6.90
2023-04-15T07:08:28.028Z,8.00
2023-04-15T07:10:55.546Z,5.00
2023-04-15T07:13:23.113Z,7.30
2023-04-15T07:15:50.658Z,6.30
2023-04-15T07:18:18.196Z,9.10
2023-04-15T07:20:45.755Z,7.70
2023-04-15T07:23:13.286Z,7.40
2023-04-15T07:25:40.861Z,9.00
2023-04-15T07:28:08.408Z,10.10
2023-04-15T07:30:36.040Z,8.80
2023-04-15T07:33:03.846Z,7.00
2023-04-15T07:35:31.516Z,7.40
2023-04-15T07:37:59.034Z,6.80
2023-04-15T07:40:26.668Z,6.30
2023-04-15T07:42:54.481Z,5.60
2023-04-15T07:45:22.005Z,6.70
2023-04-15T07:47:49.681Z,8.50
2023-04-15T07:50:17.541Z,4.60
2023-04-15T07:52:45.203Z,4.40
2023-04-15T07:55:13.313Z,6.60
2023-04-15T07:57:40.817Z,6.20
2023-04-15T08:00:08.922Z,5.60
2023-04-15T08:02:38.192Z,4.70
2023-04-15T08:05:07.828Z,5.10
2023-04-15T08:07:37.469Z,4.00
2023-04-15T08:10:05.797Z,3.80
2023-04-15T08:12:33.355Z,3.70
2023-04-15T08:15:00.923Z,4.70
2023-04-15T08:17:28.521Z,3.80
2023-04-15T08:19:56.154Z,7.40
2023-04-15T08:22:23.670Z,5.40
2023-04-15T08:24:51.255Z,4.20
2023-04-15T08:27:19.137Z,4.40
2023-04-15T08:29:46.696Z,3.80
2023-04-15T08:32:14.382Z,4.10
2023-04-15T08:34:42.073Z,5.30
2023-04-15T08:37:10.845Z,4.70
2023-04-15T08:39:39.069Z,4.50
2023-04-15T08:42:12.733Z,4.20
2023-04-15T08:44:40.788Z,3.30
2023-04-15T08:47:09.086Z,3.00
2023-04-15T08:49:40.065Z,3.30
2023-04-15T08:52:09.186Z,3.70
2023-04-15T08:54:37.894Z,3.40
2023-04-15T08:57:06.286Z,3.20
2023-04-15T08:59:33.886Z,2.80
2023-04-15T09:02:02.657Z,3.30
2023-04-15T09:04:30.373Z,2.60
2023-04-15T09:06:57.929Z,3.30
2023-04-15T09:09:25.505Z,3.00
2023-04-15T09:11:53.120Z,3.10
2023-04-15T09:14:20.624Z,2.70
2023-04-15T09:16:57.868Z,3.10
2023-04-15T09:19:25.650Z,2.70
2023-04-15T09:21:58.910Z,3.60
2023-04-15T09:24:36.448Z,2.80
2023-04-15T09:27:04.439Z,2.30
2023-04-15T09:29:32.073Z,3.80
2023-04-15T09:32:13.687Z,3.00
2023-04-15T09:34:41.281Z,3.80
2023-04-15T09:37:08.817Z,4.20
2023-04-15T09:39:46.930Z,3.90
2023-04-15T09:42:14.533Z,5.20
2023-04-15T09:44:42.092Z,4.60
2023-04-15T09:47:09.649Z,4.30
2023-04-15T09:49:37.247Z,5.20
2023-04-15T09:52:06.455Z,4.50
2023-04-15T09:54:38.482Z,6.20
2023-04-15T09:57:08.149Z,5.40
2023-04-15T09:59:36.026Z,5.70
2023-04-15T10:02:06.442Z,4.50
2023-04-15T10:04:40.765Z,5.30
2023-04-15T10:07:12.293Z,4.30
2023-04-15T10:09:40.500Z,6.00
2023-04-15T10:12:08.992Z,4.50
2023-04-15T10:14:38.872Z,5.20
2023-04-15T10:17:08.050Z,3.60
2023-04-15T10:19:37.493Z,4.20
2023-04-15T10:22:06.287Z,4.60
2023-04-15T10:24:34.209Z,3.90
2023-04-15T10:27:03.660Z,4.10
2023-04-15T10:29:31.478Z,4.30
2023-04-15T10:31:59.911Z,5.00
2023-04-15T10:34:27.945Z,4.10
2023-04-15T10:36:56.722Z,3.20
2023-04-15T10:39:33.524Z,4.50
2023-04-15T10:42:19.733Z,4.40
2023-04-15T10:44:51.455Z,3.70
2023-04-15T10:47:21.468Z,4.40
2023-04-15T10:49:57.877Z,4.20
2023-04-15T10:52:27.552Z,3.80
2023-04-15T10:55:18.880Z,4.20
2023-04-15T10:57:46.486Z,4.20
2023-04-15T11:00:15.785Z,5.90
2023-04-15T11:02:54.095Z,5.00
2023-04-15T11:05:42.777Z,5.30
2023-04-15T11:08:11.643Z,5.40
2023-04-15T11:10:39.138Z,5.30
2023-04-15T11:13:09.634Z,6.10
2023-04-15T11:15:39.820Z,4.90
2023-04-15T11:18:19.236Z,5.00
2023-04-15T11:20:59.128Z,5.20
2023-04-15T11:23:32.473Z,4.50
2023-04-15T11:26:01.853Z,4.50
2023-04-15T11:28:31.202Z,4.90
2023-04-15T11:31:05.565Z,4.60
2023-04-15T11:33:33.140Z,4.60
2023-04-15T11:36:01.225Z,5.20
2023-04-15T11:38:29.052Z,4.60
2023-04-15T11:40:57.005Z,5.10
2023-04-15T11:43:24.656Z,4.60
2023-04-15T11:46:00.380Z,4.10
2023-04-15T11:48:30.162Z,5.90
2023-04-15T11:51:02.741Z,4.20
2023-04-15T11:53:56.645Z,4.90
2023-04-15T11:56:26.341Z,4.20
2023-04-15T11:58:56.985Z,4.70
2023-04-15T12:01:35.989Z,5.00
2023-04-15T12:04:11.621Z,5.20
2023-04-15T12:06:39.354Z,4.90
2023-04-15T12:09:06.984Z,4.00
2023-04-15T12:11:45.057Z,3.70
2023-04-15T12:14:15.874Z,4.80
2023-04-15T12:16:49.775Z,4.70
2023-04-15T12:19:24.691Z,5.30
2023-04-15T12:21:58.266Z,6.20
2023-04-15T12:24:28.265Z,4.70
2023-04-15T12:27:01.945Z,3.80
2023-04-15T12:29:31.101Z,5.30
2023-04-15T12:32:04.740Z,4.80
2023-04-15T12:34:37.384Z,3.60
2023-04-15T12:37:07.275Z,4.50
2023-04-15T12:39:39.805Z,3.50
2023-04-15T12:42:08.493Z,4.00
2023-04-15T12:44:37.236Z,3.90
2023-04-15T12:47:05.116Z,3.60
2023-04-15T12:49:33.107Z,3.50
2023-04-15T12:52:02.515Z,3.70
2023-04-15T12:54:31.057Z,5.00
2023-04-15T12:56:59.651Z,4.20
2023-04-15T12:59:28.617Z,4.30
2023-04-15T13:01:56.284Z,3.50
2023-04-15T13:04:24.131Z,3.10
2023-04-15T13:06:51.764Z,4.60
2023-04-15T13:09:19.473Z,3.50
2023-04-15T13:11:47.064Z,2.80
2023-04-15T13:14:14.579Z,3.30
2023-04-15T13:16:42.155Z,2.90
2023-04-15T13:19:09.701Z,2.80
2023-04-15T13:21:37.211Z,2.60
2023-04-15T13:24:05.185Z,2.80
2023-04-15T13:29:00.890Z,3.30
2023-04-15T13:33:57.611Z,3.30
2023-04-15T13:36:25.271Z,2.50
2023-04-15T13:38:52.846Z,2.50
2023-04-15T13:41:20.379Z,2.70
2023-04-15T13:43:47.953Z,3.30
2023-04-15T13:46:15.964Z,3.50
2023-04-15T13:48:43.584Z,3.20
2023-04-15T13:51:11.278Z,2.40
2023-04-15T13:53:39.762Z,2.40
2023-04-15T13:56:08.354Z,2.70
2023-04-15T13:58:37.226Z,2.50
2023-04-15T14:01:06.463Z,3.00
2023-04-15T14:03:35.359Z,4.00
2023-04-15T14:06:03.097Z,3.60
2023-04-15T14:08:30.660Z,2.90
2023-04-15T14:10:58.256Z,3.10
2023-04-15T14:13:25.893Z,4.70
2023-04-15T14:15:53.564Z,3.40
2023-04-15T14:18:21.219Z,4.40
2023-04-15T14:20:48.808Z,3.10
2023-04-15T14:23:16.339Z,3.70
2023-04-15T14:25:45.067Z,4.30
2023-04-15T14:28:14.623Z,3.30
2023-04-15T14:30:42.434Z,3.50
2023-04-15T14:33:10.089Z,3.80
2023-04-15T14:35:37.837Z,3.80
2023-04-15T14:38:05.466Z,3.50
2023-04-15T14:40:33.629Z,3.10
2023-04-15T14:43:01.182Z,3.30
2023-04-15T14:45:30.395Z,2.70
2023-04-15T14:47:59.341Z,3.00
2023-04-15T14:50:26.960Z,3.10
2023-04-15T14:52:54.465Z,3.50
2023-04-15T14:55:22.110Z,3.30
2023-04-15T14:57:49.737Z,3.00
2023-04-15T15:00:17.459Z,3.30
2023-04-15T15:02:45.139Z,3.20
2023-04-15T15:05:13.024Z,3.20
2023-04-15T15:07:40.748Z,2.90
2023-04-15T15:10:08.996Z,3.20
2023-04-15T15:12:36.605Z,3.60
2023-04-15T15:15:09.208Z,3.30
2023-04-15T15:17:43.661Z,2.60
2023-04-15T15:20:11.481Z,2.60
2023-04-15T15:22:39.014Z,3.40
2023-04-15T15:25:06.795Z,4.20
2023-04-15T15:27:35.487Z,3.20
2023-04-15T15:30:05.085Z,3.50
2023-04-15T15:32:32.687Z,3.40
2023-04-15T15:35:00.272Z,4.60
2023-04-15T15:37:28.032Z,3.80
2023-04-15T15:39:55.544Z,4.40
2023-04-15T15:42:23.263Z,4.90
2023-04-15T15:44:50.838Z,3.60
2023-04-15T15:47:19.160Z,3.90
2023-04-15T15:49:46.758Z,4.50
2023-04-15T15:52:14.375Z,4.40
2023-04-15T15:54:41.928Z,4.40
2023-04-15T15:57:09.493Z,4.90
2023-04-15T15:59:37.046Z,9.80
2023-04-15T16:02:04.802Z,5.30
2023-04-15T16:04:32.668Z,3.60
2023-04-15T16:07:00.421Z,4.30
2023-04-15T16:09:27.964Z,5.00
2023-04-15T16:11:55.617Z,6.00
2023-04-15T16:14:24.172Z,4.90
2023-04-15T16:16:52.626Z,4.20
2023-04-15T16:19:21.245Z,4.70
2023-04-15T16:21:48.865Z,4.50
2023-04-15T16:24:16.420Z,4.80
2023-04-15T16:26:43.933Z,5.60
2023-04-15T16:29:11.470Z,5.10
2023-04-15T16:31:39.152Z,4.90
2023-04-15T16:34:07.084Z,6.00
2023-04-15T16:36:35.220Z,5.70
2023-04-15T16:39:03.060Z,5.10
2023-04-15T16:41:32.604Z,5.80
2023-04-15T16:44:02.084Z,5.70
2023-04-15T16:46:29.848Z,8.90
2023-04-15T16:48:57.435Z,9.10
2023-04-15T16:51:25.001Z,7.90
2023-04-15T16:53:53.035Z,10.20
2023-04-15T16:56:20.605Z,9.30
2023-04-15T16:58:48.157Z,10.80
2023-04-15T17:01:15.762Z,12.30
2023-04-15T17:03:43.737Z,12.00
2023-04-15T17:06:11.652Z,11.00
2023-04-15T17:08:39.331Z,16.10
2023-04-15T17:11:07.256Z,11.50
2023-04-15T17:13:34.860Z,11.20
2023-04-15T17:16:02.651Z,14.00
2023-04-15T17:18:30.280Z,13.40
2023-04-15T17:20:57.939Z,17.20
2023-04-15T17:23:25.991Z,12.20
2023-04-15T17:25:53.710Z,9.60
2023-04-15T17:28:21.328Z,9.10
2023-04-15T17:30:49.009Z,9.20
2023-04-15T17:33:57.504Z,7.60
2023-04-15T17:36:04.870Z,6.80
2023-04-15T17:38:32.525Z,9.30
2023-04-15T17:41:00.146Z,8.60
2023-04-15T17:43:27.701Z,10.50
2023-04-15T17:45:56.542Z,12.40
2023-04-15T17:48:25.641Z,9.90
2023-04-15T17:50:53.222Z,10.20
2023-04-15T17:53:20.852Z,9.10
2023-04-15T17:55:48.396Z,8.40
2023-04-15T17:58:16.137Z,16.00
2023-04-15T18:00:43.693Z,14.40
2023-04-15T18:03:11.548Z,12.80
2023-04-15T18:05:41.365Z,10.60
2023-04-15T18:08:10.514Z,12.60
2023-04-15T18:10:39.270Z,12.60
2023-04-15T18:13:07.166Z,20.40
2023-04-15T18:15:35.078Z,21.40
2023-04-15T18:18:02.803Z,21.20
2023-04-15T18:20:30.381Z,31.20
2023-04-15T18:22:58.224Z,28.30
2023-04-15T18:25:25.943Z,20.00
2023-04-15T18:27:54.912Z,17.00
2023-04-15T18:30:22.961Z,17.60
2023-04-15T18:32:50.871Z,14.20
2023-04-15T18:35:18.784Z,9.80
2023-04-15T18:37:46.338Z,7.10
2023-04-15T18:40:13.950Z,11.10
2023-04-15T18:42:41.600Z,11.20
2023-04-15T18:45:09.550Z,13.10
2023-04-15T18:47:37.458Z,11.70
2023-04-15T18:50:05.888Z,12.00
2023-04-15T18:52:33.592Z,12.90
2023-04-15T18:55:01.248Z,15.40
2023-04-15T18:57:34.791Z,14.80
2023-04-15T19:00:03.367Z,16.30
2023-04-15T19:02:31.143Z,15.50
2023-04-15T19:04:59.382Z,16.60
2023-04-15T19:07:26.978Z,13.90
2023-04-15T19:09:54.556Z,15.50
2023-04-15T19:12:22.391Z,20.90
2023-04-15T19:14:50.325Z,18.10
2023-04-15T19:17:17.980Z,15.20
2023-04-15T19:19:45.543Z,14.30
2023-04-15T19:22:13.395Z,15.70
2023-04-15T19:24:41.250Z,18.10
2023-04-15T19:27:09.163Z,10.90
2023-04-15T19:29:37.126Z,16.00
2023-04-15T19:32:04.956Z,17.00
2023-04-15T19:34:32.855Z,16.60
2023-04-15T19:37:00.688Z,16.20
2023-04-15T19:39:28.263Z,18.20
2023-04-15T19:41:55.894Z,18.70
2023-04-15T19:44:23.430Z,15.00
2023-04-15T19:46:52.452Z,18.20
2023-04-15T19:49:20.308Z,16.00
2023-04-15T19:51:49.390Z,20.20
2023-04-15T19:54:16.976Z,15.70
2023-04-15T19:56:44.550Z,19.50
2023-04-15T19:59:12.175Z,21.80
2023-04-15T20:01:39.734Z,25.40
2023-04-15T20:04:07.500Z,21.80
2023-04-15T20:06:35.213Z,24.30
2023-04-15T20:09:03.418Z,21.20
2023-04-15T20:12:05.122Z,23.10
2023-04-15T20:14:18.929Z,18.90
2023-04-15T20:16:46.579Z,19.20
2023-04-15T20:19:14.271Z,16.50
2023-04-15T20:21:42.092Z,18.20
2023-04-15T20:24:09.932Z,22.30
2023-04-15T20:26:37.571Z,22.90
2023-04-15T20:29:05.460Z,21.90
2023-04-15T20:31:33.229Z,26.00
2023-04-15T20:34:00.821Z,27.70
2023-04-15T20:36:28.372Z,32.90
2023-04-15T20:38:55.879Z,34.70
2023-04-15T20:41:23.426Z,27.90
2023-04-15T20:43:51.037Z,24.00
2023-04-15T20:46:21.554Z,21.80
2023-04-15T20:48:49.325Z,23.50
2023-04-15T20:51:16.914Z,26.40
2023-04-15T20:53:44.461Z,21.90
2023-04-15T20:56:12.027Z,23.20
2023-04-15T20:58:39.596Z,24.90
2023-04-15T21:01:07.416Z,26.60
2023-04-15T21:03:35.180Z,26.20
2023-04-15T21:06:02.885Z,28.20
2023-04-15T21:08:30.424Z,25.50
2023-04-15T21:10:58.067Z,29.50
2023-04-15T21:13:25.653Z,33.20
2023-04-15T21:15:53.195Z,29.80
2023-04-15T21:18:22.019Z,28.90
2023-04-15T21:20:57.546Z,35.10
2023-04-15T21:23:26.392Z,32.90
2023-04-15T21:25:54.027Z,26.40
2023-04-15T21:28:22.241Z,24.40
2023-04-15T21:30:49.917Z,39.50
2023-04-15T21:33:17.939Z,46.30
2023-04-15T21:35:45.562Z,57.10
2023-04-15T21:38:13.162Z,53.40
2023-04-15T21:40:40.927Z,50.40
2023-04-15T21:43:08.716Z,40.10
2023-04-15T21:45:36.597Z,40.00
2023-04-15T21:48:07.834Z,37.40
2023-04-15T21:50:37.267Z,39.10
2023-04-15T21:53:07.665Z,38.80
2023-04-15T21:55:35.624Z,36.90
2023-04-15T21:58:03.223Z,35.60
2023-04-15T22:00:30.727Z,38.60
2023-04-15T22:02:58.374Z,33.90
2023-04-15T22:05:26.005Z,44.50
2023-04-15T22:07:53.517Z,46.80
2023-04-15T22:10:21.145Z,45.00
2023-04-15T22:12:48.692Z,43.70
2023-04-15T22:15:16.239Z,46.30
2023-04-15T22:17:43.775Z,45.20
2023-04-15T22:20:11.344Z,45.50
2023-04-15T22:22:44.173Z,47.30
2023-04-15T22:25:12.374Z,41.70
2023-04-15T22:27:39.928Z,45.10
2023-04-15T22:30:08.265Z,45.40
2023-04-15T22:32:36.016Z,44.40
2023-04-15T22:35:03.976Z,45.10
2023-04-15T22:37:31.588Z,37.80
2023-04-15T22:39:59.301Z,43.50
2023-04-15T22:42:27.302Z,36.90
2023-04-15T22:44:54.857Z,38.40
2023-04-15T22:47:22.437Z,43.30
2023-04-15T22:49:49.950Z,49.90
2023-04-15T22:52:27.195Z,45.40
2023-04-15T22:54:57.476Z,42.80
2023-04-15T22:57:25.092Z,42.10
2023-04-15T22:59:52.662Z,40.60
2023-04-15T23:02:20.322Z,51.50
2023-04-15T23:04:48.193Z,43.20
2023-04-15T23:07:15.782Z,47.90
2023-04-15T23:09:43.348Z,39.40
2023-04-15T23:12:11.008Z,34.10
2023-04-15T23:14:38.565Z,55.30
2023-04-15T23:17:06.252Z,40.50
2023-04-15T23:19:33.828Z,39.80
2023-04-15T23:22:01.443Z,34.40
2023-04-15T23:24:29.008Z,34.50
2023-04-15T23:26:56.545Z,36.70
2023-04-15T23:29:24.118Z,73.90
2023-04-15T23:31:51.648Z,37.10
2023-04-15T23:34:19.327Z,56.50
2023-04-15T23:36:46.881Z,66.20
2023-04-15T23:39:14.497Z,45.90
2023-04-15T23:41:42.091Z,45.20
2023-04-15T23:44:09.689Z,46.10
2023-04-15T23:46:37.305Z,34.10
2023-04-15T23:49:04.893Z,33.70
2023-04-15T23:51:32.448Z,32.70
2023-04-15T23:54:00.056Z,36.20
2023-04-15T23:56:27.638Z,32.30
2023-04-15T23:58:55.196Z,37.50
